Terminal Aerodrome Forecast
Issued by NWS

Home | Current Version | Previous Version | Text Only | Print | Product List | Glossary On
Versions: 1 2 3 4 5 6 7 8 9 10 11 12 13 14 15
000
FTUS43 KOAX 281357 AAA
TAFCDR
TAF AMD
KCDR 281357Z 2814/2912 25005KT P6SM SKC
     FM282100 36005KT P6SM VCTS BKN100CB
     FM290300 VRB03KT P6SM SCT100=

USA.gov is the U.S. government's official web portal to all federal, state and local government web resources and services.